Time;durP1;ratioP1;P1;durP2;ratioP2;P2;SDS_P1;SDS_P2;PMS_P1;PMS_P2;Temp;Humidity;BMP_temperature;BMP_pressure;BME280_temperature;BME280_humidity;BME280_pressure;Samples;Min_cycle;Max_cycle;Signal;HPM_P1;HPM_P2
2024/03/07 00:02:00;;;;;;;5.97;4.20;;;10.40;99.90;;;;;;5075577;28;20947;-45
2024/03/07 00:04:30;;;;;;;4.30;3.60;;;10.40;99.90;;;;;;5072376;28;20466;-45
2024/03/07 00:07:02;;;;;;;4.60;3.57;;;10.40;99.90;;;;;;5075752;28;20491;-45
2024/03/07 00:09:30;;;;;;;5.23;4.00;;;10.40;99.90;;;;;;5073487;28;20428;-45
2024/03/07 00:11:58;;;;;;;4.47;3.20;;;10.40;99.90;;;;;;5073403;28;20450;-44
2024/03/07 00:14:27;;;;;;;5.87;4.43;;;10.40;99.90;;;;;;5076419;28;20444;-45
2024/03/07 00:16:59;;;;;;;6.13;4.90;;;10.40;99.90;;;;;;5075256;28;20442;-44
2024/03/07 00:19:27;;;;;;;5.30;4.23;;;10.40;99.90;;;;;;5072935;28;20447;-45
2024/03/07 00:21:57;;;;;;;7.33;5.70;;;10.40;99.90;;;;;;5075561;28;20427;-45
2024/03/07 00:24:27;;;;;;;4.77;4.27;;;10.40;99.90;;;;;;5075261;28;20427;-44
2024/03/07 00:26:56;;;;;;;5.30;3.97;;;10.40;99.90;;;;;;5074602;28;20438;-44
2024/03/07 00:29:28;;;;;;;6.73;5.13;;;10.40;99.90;;;;;;5066254;28;20469;-45
2024/03/07 00:31:58;;;;;;;3.73;2.80;;;10.40;99.90;;;;;;5075712;28;20427;-44
2024/03/07 00:34:27;;;;;;;6.37;4.63;;;10.40;99.90;;;;;;5054568;28;20572;-44
2024/03/07 00:36:56;;;;;;;5.00;3.90;;;10.40;99.90;;;;;;5075663;28;20765;-45
2024/03/07 00:39:26;;;;;;;4.30;3.70;;;10.40;99.90;;;;;;5075275;28;20447;-44
2024/03/07 00:41:56;;;;;;;5.00;4.50;;;10.40;99.90;;;;;;5075090;28;20439;-44
2024/03/07 00:44:27;;;;;;;4.37;3.63;;;10.30;99.90;;;;;;5074667;28;21161;-45
2024/03/07 00:46:58;;;;;;;4.97;4.20;;;10.40;99.90;;;;;;5075059;28;20427;-44
2024/03/07 00:49:28;;;;;;;4.30;3.57;;;10.40;99.90;;;;;;5066891;28;20438;-44
2024/03/07 00:51:56;;;;;;;4.70;3.77;;;10.40;99.90;;;;;;5074455;28;20432;-44
2024/03/07 00:54:24;;;;;;;6.17;5.10;;;10.30;99.90;;;;;;5071574;28;20442;-45
2024/03/07 00:56:56;;;;;;;5.30;4.70;;;10.40;99.90;;;;;;5069507;28;20440;-44
2024/03/07 00:59:27;;;;;;;7.17;4.83;;;10.40;99.90;;;;;;5072400;28;20436;-44
2024/03/07 01:01:58;;;;;;;8.43;6.40;;;10.40;99.90;;;;;;5071809;28;21002;-44
2024/03/07 01:04:30;;;;;;;8.73;7.07;;;10.30;99.90;;;;;;5070206;28;20450;-44
2024/03/07 01:07:03;;;;;;;7.90;5.73;;;10.30;99.90;;;;;;5071820;28;20572;-44
2024/03/07 01:09:31;;;;;;;6.30;4.97;;;10.30;99.90;;;;;;5054013;28;20420;-45
2024/03/07 01:11:59;;;;;;;5.87;4.50;;;10.30;99.90;;;;;;5072482;28;20470;-44
2024/03/07 01:14:31;;;;;;;5.90;4.93;;;10.30;99.90;;;;;;5069194;28;20965;-44
2024/03/07 01:17:02;;;;;;;7.40;5.80;;;10.30;99.90;;;;;;5071524;28;20466;-44
2024/03/07 01:19:30;;;;;;;6.90;5.07;;;10.30;99.90;;;;;;5066437;28;20440;-45
2024/03/07 01:21:59;;;;;;;5.33;4.50;;;10.30;99.90;;;;;;5071069;28;20495;-44
2024/03/07 01:24:27;;;;;;;6.47;5.50;;;10.30;99.90;;;;;;5071887;28;20515;-45
2024/03/07 01:26:56;;;;;;;5.07;4.37;;;10.30;99.90;;;;;;5050883;28;20448;-45
2024/03/07 01:29:26;;;;;;;7.97;5.13;;;10.30;99.90;;;;;;5071763;28;20466;-44
2024/03/07 01:31:54;;;;;;;5.17;4.67;;;10.30;99.90;;;;;;5070502;28;20916;-44
2024/03/07 01:34:25;;;;;;;6.20;4.57;;;10.30;99.90;;;;;;5070542;28;20447;-44
2024/03/07 01:36:54;;;;;;;6.57;5.30;;;10.30;99.90;;;;;;5071696;28;20470;-44
2024/03/07 01:39:23;;;;;;;4.90;4.37;;;10.30;99.90;;;;;;5072319;28;20570;-44
2024/03/07 01:41:52;;;;;;;5.70;4.70;;;10.30;99.90;;;;;;5069294;28;20439;-44
2024/03/07 01:44:23;;;;;;;5.97;4.60;;;10.30;99.90;;;;;;5067970;28;20870;-44
2024/03/07 01:46:55;;;;;;;5.10;4.33;;;10.30;99.90;;;;;;5071282;28;20439;-45
2024/03/07 01:49:28;;;;;;;6.20;4.83;;;10.30;99.90;;;;;;5069369;28;20866;-44
2024/03/07 01:51:56;;;;;;;5.90;5.30;;;10.30;99.90;;;;;;5062158;28;20447;-44
2024/03/07 01:54:27;;;;;;;5.90;4.63;;;10.20;99.90;;;;;;5066884;28;20953;-44
2024/03/07 01:56:58;;;;;;;5.10;4.20;;;10.30;99.90;;;;;;5070367;28;20539;-44
2024/03/07 01:59:29;;;;;;;6.43;4.57;;;10.30;99.90;;;;;;5071573;28;20447;-45
2024/03/07 02:01:58;;;;;;;5.93;4.50;;;10.30;99.90;;;;;;5062670;28;20437;-44
2024/03/07 02:04:28;;;;;;;5.03;4.20;;;10.30;99.90;;;;;;5064061;28;20452;-44
2024/03/07 02:06:57;;;;;;;4.33;3.90;;;10.30;99.90;;;;;;5070747;28;20521;-44
2024/03/07 02:09:26;;;;;;;6.63;5.50;;;10.20;99.90;;;;;;5070450;28;20502;-45
2024/03/07 02:11:57;;;;;;;7.47;5.97;;;10.20;99.90;;;;;;5061204;28;20444;-45
2024/03/07 02:14:25;;;;;;;6.33;4.90;;;10.20;99.90;;;;;;5069879;28;20432;-44
2024/03/07 02:16:56;;;;;;;6.40;5.20;;;10.20;99.90;;;;;;5069868;28;20442;-44
2024/03/07 02:19:24;;;;;;;6.77;5.57;;;10.30;99.90;;;;;;5068557;28;20435;-44
2024/03/07 02:21:59;;;;;;;6.83;5.30;;;10.20;99.90;;;;;;5071006;28;20450;-44
2024/03/07 02:24:27;;;;;;;5.93;4.80;;;10.20;99.90;;;;;;5070413;28;20443;-44
2024/03/07 02:26:56;;;;;;;6.43;5.20;;;10.20;99.90;;;;;;5070635;28;20490;-44
2024/03/07 02:29:26;;;;;;;7.37;6.00;;;10.20;99.90;;;;;;5066632;28;20511;-44
2024/03/07 02:31:55;;;;;;;5.63;4.57;;;10.20;99.90;;;;;;5061585;28;20438;-44
2024/03/07 02:34:26;;;;;;;6.10;3.90;;;10.20;99.90;;;;;;5067721;28;20442;-45
2024/03/07 02:36:58;;;;;;;4.97;4.17;;;10.20;99.90;;;;;;5070199;28;20432;-44
2024/03/07 02:39:27;;;;;;;5.40;4.83;;;10.20;99.90;;;;;;5069509;28;20435;-44
2024/03/07 02:41:56;;;;;;;6.10;4.57;;;10.20;99.90;;;;;;5069681;28;20456;-44
2024/03/07 02:44:24;;;;;;;7.53;5.00;;;10.20;99.90;;;;;;5070936;28;20480;-44
2024/03/07 02:46:54;;;;;;;6.47;4.97;;;10.20;99.90;;;;;;5069534;28;20434;-44
2024/03/07 02:49:22;;;;;;;5.07;4.43;;;10.20;99.90;;;;;;5062806;28;20495;-44
2024/03/07 02:51:51;;;;;;;5.70;4.13;;;10.20;99.90;;;;;;5061656;28;20438;-44
2024/03/07 02:54:22;;;;;;;8.90;5.47;;;10.20;99.90;;;;;;5068463;28;21033;-44
2024/03/07 02:56:53;;;;;;;5.93;4.80;;;10.20;99.90;;;;;;5068592;28;20439;-44
2024/03/07 02:59:24;;;;;;;4.97;4.23;;;10.20;99.90;;;;;;5069894;28;20446;-44
2024/03/07 03:01:55;;;;;;;5.60;4.63;;;10.20;99.90;;;;;;5060339;28;20462;-44
2024/03/07 03:04:26;;;;;;;6.33;4.47;;;10.20;99.90;;;;;;5068137;28;20435;-44
2024/03/07 03:06:56;;;;;;;5.00;4.50;;;10.10;99.90;;;;;;5066809;28;20492;-44
2024/03/07 03:09:28;;;;;;;4.83;3.77;;;10.20;99.90;;;;;;5070378;28;20454;-45
2024/03/07 03:11:56;;;;;;;4.77;4.20;;;10.10;99.90;;;;;;5070058;28;20526;-45
2024/03/07 03:14:26;;;;;;;5.00;4.00;;;10.10;99.90;;;;;;5063827;28;20808;-44
2024/03/07 03:16:56;;;;;;;6.00;4.80;;;10.10;99.90;;;;;;5068018;28;20945;-44
2024/03/07 03:19:26;;;;;;;5.40;4.23;;;10.10;99.90;;;;;;5067670;28;20633;-45
2024/03/07 03:21:56;;;;;;;5.57;4.07;;;10.10;99.90;;;;;;5070412;28;20943;-45
2024/03/07 03:24:25;;;;;;;5.10;4.60;;;10.10;99.90;;;;;;5070027;28;20801;-44
2024/03/07 03:26:58;;;;;;;6.43;4.90;;;10.10;99.90;;;;;;5066720;28;20490;-44
2024/03/07 03:29:28;;;;;;;5.00;4.27;;;10.10;99.90;;;;;;5059295;28;20473;-44
2024/03/07 03:31:57;;;;;;;5.07;4.23;;;10.10;99.90;;;;;;5062883;28;20442;-44
2024/03/07 03:34:27;;;;;;;4.30;3.23;;;10.10;99.90;;;;;;5068298;28;20443;-45
2024/03/07 03:36:56;;;;;;;6.60;5.03;;;10.10;99.90;;;;;;5070091;28;20500;-45
2024/03/07 03:39:25;;;;;;;4.27;3.70;;;10.10;99.90;;;;;;5069771;28;20440;-44
2024/03/07 03:41:58;;;;;;;4.57;4.10;;;10.10;99.90;;;;;;5069496;28;20435;-44
2024/03/07 03:44:26;;;;;;;5.87;4.60;;;10.10;99.90;;;;;;5069050;28;20432;-44
2024/03/07 03:46:56;;;;;;;5.43;4.33;;;10.10;99.90;;;;;;5069377;28;20440;-45
2024/03/07 03:49:24;;;;;;;6.07;5.47;;;10.10;99.90;;;;;;5063554;28;20488;-45
2024/03/07 03:51:54;;;;;;;6.37;5.07;;;10.10;99.90;;;;;;5066225;28;20433;-44
2024/03/07 03:54:25;;;;;;;4.73;4.00;;;10.00;99.90;;;;;;5069928;28;20443;-44
2024/03/07 03:56:58;;;;;;;6.53;5.33;;;10.10;99.90;;;;;;5044276;28;20436;-44
2024/03/07 03:59:27;;;;;;;6.33;4.30;;;10.10;99.90;;;;;;5064949;28;20439;-44
2024/03/07 04:01:55;;;;;;;4.87;3.90;;;10.00;99.90;;;;;;5050835;28;20419;-44
2024/03/07 04:04:27;;;;;;;5.43;4.43;;;10.10;99.90;;;;;;5060202;28;20448;-44
2024/03/07 04:06:55;;;;;;;6.03;4.23;;;10.10;99.90;;;;;;5058363;28;20424;-45
2024/03/07 04:09:29;;;;;;;5.70;4.30;;;10.10;99.90;;;;;;5051881;28;20514;-44
2024/03/07 04:11:59;;;;;;;4.77;4.10;;;10.00;99.90;;;;;;5064767;28;20428;-44
2024/03/07 04:14:27;;;;;;;8.40;5.10;;;10.00;99.90;;;;;;5055463;28;21186;-44
2024/03/07 04:16:56;;;;;;;6.40;5.10;;;10.00;99.90;;;;;;5062872;28;20689;-44
2024/03/07 04:19:26;;;;;;;5.87;4.20;;;10.00;99.90;;;;;;5051911;28;20434;-44
2024/03/07 04:21:56;;;;;;;5.63;4.93;;;10.00;99.90;;;;;;5066174;28;20820;-44
2024/03/07 04:24:28;;;;;;;6.83;5.57;;;10.00;99.90;;;;;;5053374;28;20571;-44
2024/03/07 04:26:58;;;;;;;10.17;7.40;;;10.00;99.90;;;;;;5059946;28;20446;-44
2024/03/07 04:29:26;;;;;;;5.80;5.00;;;10.00;99.90;;;;;;5063412;28;20466;-44
2024/03/07 04:31:56;;;;;;;5.60;5.00;;;10.00;99.90;;;;;;5054848;28;21039;-44
2024/03/07 04:34:24;;;;;;;6.70;5.23;;;10.00;99.90;;;;;;5066510;28;20442;-44
2024/03/07 04:36:53;;;;;;;4.43;3.40;;;10.00;99.90;;;;;;5054199;28;20443;-45
2024/03/07 04:39:26;;;;;;;5.50;4.27;;;10.00;99.90;;;;;;5053233;28;20814;-44
2024/03/07 04:41:58;;;;;;;6.07;4.60;;;10.00;99.90;;;;;;5064461;28;20438;-45
2024/03/07 04:44:27;;;;;;;5.27;4.20;;;10.00;99.90;;;;;;5060223;28;20462;-45
2024/03/07 04:46:56;;;;;;;5.40;4.57;;;10.00;99.90;;;;;;5062113;28;20538;-45
2024/03/07 04:49:28;;;;;;;6.13;4.40;;;10.00;99.90;;;;;;5055783;28;20859;-44
2024/03/07 04:51:58;;;;;;;5.47;4.70;;;10.00;99.90;;;;;;5054520;28;20427;-44
2024/03/07 04:54:28;;;;;;;6.03;4.70;;;10.00;99.90;;;;;;5057335;28;20523;-44
2024/03/07 04:56:57;;;;;;;6.03;5.43;;;10.00;99.90;;;;;;5059138;28;20431;-44
2024/03/07 04:59:27;;;;;;;5.00;3.97;;;10.00;99.90;;;;;;5054483;28;20494;-44
2024/03/07 05:01:57;;;;;;;7.20;4.70;;;9.90;99.90;;;;;;5053834;28;20462;-44
2024/03/07 05:04:29;;;;;;;5.30;4.73;;;9.90;99.90;;;;;;5055316;28;20462;-44
2024/03/07 05:06:57;;;;;;;4.70;3.87;;;9.90;99.90;;;;;;5069993;28;20431;-44
2024/03/07 05:09:28;;;;;;;5.83;5.33;;;9.90;99.90;;;;;;5056961;28;20451;-44
2024/03/07 05:11:58;;;;;;;4.80;4.20;;;9.90;99.90;;;;;;5051522;28;20423;-44
2024/03/07 05:14:26;;;;;;;5.57;5.00;;;9.90;99.90;;;;;;5062326;28;20505;-44
2024/03/07 05:17:05;;;;;;;6.03;4.03;;;9.90;99.90;;;;;;5053956;28;20455;-44
2024/03/07 05:19:36;;;;;;;5.93;4.40;;;9.90;99.90;;;;;;5067241;28;20529;-44
2024/03/07 05:22:06;;;;;;;4.73;4.10;;;9.90;99.90;;;;;;5038936;28;20444;-45
2024/03/07 05:24:36;;;;;;;5.20;4.60;;;9.90;99.90;;;;;;5069867;28;20912;-44
2024/03/07 05:27:08;;;;;;;5.73;4.50;;;9.90;99.90;;;;;;5056001;28;20460;-44
2024/03/07 05:29:37;;;;;;;4.57;4.10;;;9.90;99.90;;;;;;5058590;28;20446;-44
2024/03/07 05:32:22;;;;;;;5.80;4.77;;;9.90;99.90;;;;;;5055443;28;20432;-44
2024/03/07 05:34:54;;;;;;;8.03;4.20;;;9.90;99.90;;;;;;5062309;28;20987;-45
2024/03/07 05:37:23;;;;;;;4.87;4.37;;;9.90;99.90;;;;;;5072213;28;20816;-44
2024/03/07 05:39:52;;;;;;;8.00;6.30;;;9.80;99.90;;;;;;5063711;28;20432;-44
2024/03/07 05:42:26;;;;;;;5.73;4.90;;;9.90;99.90;;;;;;5063818;28;20441;-44
2024/03/07 05:44:56;;;;;;;5.70;4.70;;;9.90;99.90;;;;;;5064245;28;20465;-44
2024/03/07 05:47:26;;;;;;;5.60;4.40;;;9.90;99.90;;;;;;5058332;28;20435;-44
2024/03/07 05:49:55;;;;;;;5.70;5.10;;;9.80;99.90;;;;;;5052850;28;20538;-44
2024/03/07 05:52:24;;;;;;;7.37;5.53;;;9.80;99.90;;;;;;5069920;28;20801;-44
2024/03/07 05:54:53;;;;;;;5.50;4.50;;;9.90;99.90;;;;;;5057607;28;20477;-45
2024/03/07 05:57:26;;;;;;;4.53;3.70;;;9.80;99.90;;;;;;5060855;28;20446;-44
2024/03/07 05:59:56;;;;;;;5.20;4.70;;;9.80;99.90;;;;;;5057239;28;20455;-44
2024/03/07 06:02:27;;;;;;;5.53;4.90;;;9.80;99.90;;;;;;5060975;28;20502;-45
2024/03/07 06:04:55;;;;;;;5.60;4.63;;;9.80;99.90;;;;;;5054580;28;20466;-44
2024/03/07 06:07:26;;;;;;;6.10;5.47;;;9.80;99.90;;;;;;5060400;28;20490;-44
2024/03/07 06:09:55;;;;;;;7.23;5.53;;;9.80;99.90;;;;;;5054700;28;20436;-45
2024/03/07 06:12:26;;;;;;;6.57;4.77;;;9.80;99.90;;;;;;5064103;28;20439;-45
2024/03/07 06:14:56;;;;;;;4.60;3.80;;;9.80;99.90;;;;;;5062501;28;20470;-44
2024/03/07 06:17:24;;;;;;;5.60;4.07;;;9.80;99.90;;;;;;5064308;28;20415;-45
2024/03/07 06:19:55;;;;;;;6.53;4.20;;;9.80;99.90;;;;;;5060247;28;20458;-44
2024/03/07 06:22:26;;;;;;;5.87;4.93;;;9.80;99.90;;;;;;5063903;28;20431;-44
2024/03/07 06:25:04;;;;;;;4.57;3.80;;;9.70;99.90;;;;;;5065727;28;20529;-44
2024/03/07 06:27:37;;;;;;;5.50;4.20;;;9.80;99.90;;;;;;5050564;28;20450;-44
2024/03/07 06:30:09;;;;;;;5.70;5.00;;;9.80;99.90;;;;;;5054231;28;20718;-44
2024/03/07 06:32:37;;;;;;;5.00;4.03;;;9.70;99.90;;;;;;5055075;28;20423;-45
2024/03/07 06:35:08;;;;;;;4.33;3.73;;;9.70;99.90;;;;;;5059206;28;20872;-44
2024/03/07 06:37:37;;;;;;;5.37;3.90;;;9.70;99.90;;;;;;5062012;28;20422;-44
2024/03/07 06:40:09;;;;;;;6.27;5.10;;;9.70;99.90;;;;;;5054937;28;20465;-44
2024/03/07 06:42:41;;;;;;;6.50;4.57;;;9.70;99.90;;;;;;5055892;28;20447;-44
2024/03/07 06:45:12;;;;;;;4.00;3.53;;;9.70;99.90;;;;;;5061744;28;20879;-44
2024/03/07 06:47:42;;;;;;;5.30;4.03;;;9.70;99.90;;;;;;5071229;28;20465;-46
2024/03/07 06:50:14;;;;;;;5.40;4.63;;;9.70;99.90;;;;;;5057795;28;20447;-45
2024/03/07 06:52:56;;;;;;;6.20;4.23;;;9.70;99.90;;;;;;5058219;28;20426;-44
2024/03/07 06:55:28;;;;;;;4.83;3.70;;;9.70;99.90;;;;;;5056979;28;20463;-45
2024/03/07 06:57:58;;;;;;;5.57;4.30;;;9.70;99.90;;;;;;5059350;28;20479;-45
2024/03/07 07:00:27;;;;;;;4.87;3.87;;;9.70;99.90;;;;;;5059763;28;20458;-45
2024/03/07 07:02:55;;;;;;;5.50;4.57;;;9.70;99.90;;;;;;5067084;28;20824;-45
2024/03/07 07:05:26;;;;;;;5.50;4.90;;;9.60;99.90;;;;;;5060379;28;20462;-45
2024/03/07 07:07:55;;;;;;;5.13;4.00;;;9.70;99.90;;;;;;5052844;28;20470;-48
2024/03/07 07:10:26;;;;;;;6.03;4.57;;;9.60;99.90;;;;;;5042632;28;20480;-45
2024/03/07 07:12:58;;;;;;;5.60;4.63;;;9.70;99.90;;;;;;5054090;28;20881;-45
2024/03/07 07:15:26;;;;;;;4.87;3.70;;;9.70;99.90;;;;;;5061492;28;20451;-45
2024/03/07 07:17:56;;;;;;;4.57;3.77;;;9.70;99.90;;;;;;5063877;28;20454;-45
2024/03/07 07:20:26;;;;;;;5.80;4.20;;;9.60;99.90;;;;;;5054266;28;20467;-47
2024/03/07 07:22:57;;;;;;;5.30;4.07;;;9.60;99.90;;;;;;5067171;28;20856;-46
2024/03/07 07:25:27;;;;;;;5.20;4.60;;;9.60;99.90;;;;;;5056838;28;20462;-46
2024/03/07 07:27:58;;;;;;;5.37;4.30;;;9.60;99.90;;;;;;5058583;28;20840;-45
2024/03/07 07:30:27;;;;;;;5.07;4.27;;;9.60;99.90;;;;;;5035125;28;20939;-45
2024/03/07 07:32:56;;;;;;;4.60;4.00;;;9.60;99.90;;;;;;5063372;28;20493;-44
2024/03/07 07:35:26;;;;;;;6.10;4.60;;;9.60;99.90;;;;;;5043324;28;20545;-46
2024/03/07 07:37:56;;;;;;;6.37;4.90;;;9.60;99.90;;;;;;5050241;28;20509;-47
2024/03/07 07:40:28;;;;;;;6.73;4.63;;;9.60;99.90;;;;;;5051057;28;20433;-45
2024/03/07 07:42:58;;;;;;;6.80;6.00;;;9.60;99.90;;;;;;5050628;28;20442;-45
2024/03/07 07:45:26;;;;;;;6.90;5.17;;;9.60;99.90;;;;;;5059394;28;21017;-47
2024/03/07 07:47:56;;;;;;;6.37;4.80;;;9.60;99.90;;;;;;5058291;28;20439;-45
2024/03/07 07:50:26;;;;;;;7.30;5.90;;;9.60;99.90;;;;;;5060128;28;21045;-50
2024/03/07 07:52:56;;;;;;;9.00;8.10;;;9.60;99.90;;;;;;5064601;28;20537;-46
2024/03/07 07:55:26;;;;;;;6.90;5.33;;;9.60;99.90;;;;;;5054431;28;20812;-46
2024/03/07 07:57:59;;;;;;;6.60;4.97;;;9.60;99.90;;;;;;5056649;28;20443;-45
2024/03/07 08:00:30;;;;;;;8.57;6.80;;;9.60;99.90;;;;;;5051330;28;20435;-45
2024/03/07 08:03:03;;;;;;;6.20;4.67;;;9.60;99.90;;;;;;5061242;28;20438;-44
2024/03/07 08:05:33;;;;;;;5.17;4.60;;;9.60;99.90;;;;;;5068859;28;20462;-45
2024/03/07 08:08:04;;;;;;;4.80;3.70;;;9.60;99.90;;;;;;5043387;28;20481;-44
2024/03/07 08:10:38;;;;;;;6.23;4.40;;;9.60;99.90;;;;;;5065618;28;20506;-47
2024/03/07 08:13:13;;;;;;;6.80;5.43;;;9.60;99.90;;;;;;5065241;28;20501;-46
2024/03/07 08:15:42;;;;;;;6.83;5.30;;;9.60;99.90;;;;;;5064152;28;20544;-47
2024/03/07 08:18:11;;;;;;;5.57;5.00;;;9.60;99.90;;;;;;5062751;28;20481;-46
2024/03/07 08:20:42;;;;;;;5.80;4.47;;;9.60;99.90;;;;;;5054956;28;20450;-46
2024/03/07 08:23:12;;;;;;;7.30;5.50;;;9.60;99.90;;;;;;5057882;28;20499;-45
2024/03/07 08:25:42;;;;;;;8.83;7.03;;;9.60;99.90;;;;;;5055605;28;20467;-47
2024/03/07 08:28:12;;;;;;;5.23;4.63;;;9.60;99.90;;;;;;5059867;28;20492;-47
2024/03/07 08:30:41;;;;;;;4.77;4.23;;;9.60;99.90;;;;;;5062990;28;20446;-46
2024/03/07 08:33:13;;;;;;;6.57;5.30;;;9.60;99.90;;;;;;5057724;28;20461;-45
2024/03/07 08:35:41;;;;;;;6.40;4.80;;;9.60;99.90;;;;;;5056254;28;20467;-44
2024/03/07 08:38:12;;;;;;;5.60;4.47;;;9.50;99.90;;;;;;5058496;28;20485;-44
2024/03/07 08:40:40;;;;;;;5.57;4.93;;;9.60;99.90;;;;;;5054843;28;20471;-44
2024/03/07 08:43:10;;;;;;;5.50;4.27;;;9.60;99.90;;;;;;5064520;28;20537;-45
2024/03/07 08:45:41;;;;;;;5.50;4.90;;;9.60;99.90;;;;;;5064301;28;20490;-44
2024/03/07 08:48:10;;;;;;;6.30;5.03;;;9.60;99.90;;;;;;5054662;28;20800;-45
2024/03/07 08:50:40;;;;;;;5.60;4.47;;;9.60;99.90;;;;;;5061060;28;20444;-46
2024/03/07 08:53:11;;;;;;;5.53;4.47;;;9.50;99.90;;;;;;5052918;28;20475;-46
2024/03/07 08:55:42;;;;;;;6.13;5.37;;;9.50;99.90;;;;;;5063313;28;20461;-46
2024/03/07 08:58:12;;;;;;;5.20;4.23;;;9.50;99.90;;;;;;5063680;28;20525;-45
2024/03/07 09:00:44;;;;;;;5.30;4.60;;;9.50;99.90;;;;;;5063867;28;20462;-47
2024/03/07 09:03:18;;;;;;;6.90;4.87;;;9.50;99.90;;;;;;5060761;28;20459;-46
2024/03/07 09:05:47;;;;;;;7.07;5.37;;;9.50;99.90;;;;;;5054956;28;21092;-45
2024/03/07 09:08:16;;;;;;;5.50;4.60;;;9.50;99.90;;;;;;5053570;28;20427;-46
2024/03/07 09:10:46;;;;;;;5.47;4.87;;;9.50;99.90;;;;;;5057477;28;20778;-45
2024/03/07 09:13:17;;;;;;;5.87;4.53;;;9.50;99.90;;;;;;5064255;28;20907;-45
2024/03/07 09:15:47;;;;;;;4.93;4.33;;;9.50;99.90;;;;;;5061899;28;20873;-45
2024/03/07 09:18:16;;;;;;;6.97;4.40;;;9.50;99.90;;;;;;5055671;28;20450;-45
2024/03/07 09:20:46;;;;;;;7.97;7.03;;;9.50;99.90;;;;;;5062185;28;20449;-45
2024/03/07 09:23:16;;;;;;;11.40;8.20;;;9.50;99.90;;;;;;5058192;28;20430;-46
2024/03/07 09:25:45;;;;;;;7.17;6.40;;;9.40;99.90;;;;;;5069754;28;20559;-46
2024/03/07 09:28:15;;;;;;;6.10;4.93;;;9.50;99.90;;;;;;5059848;28;20470;-45
2024/03/07 09:30:48;;;;;;;6.63;5.50;;;9.50;99.90;;;;;;5062262;28;20490;-47
2024/03/07 09:33:19;;;;;;;5.63;4.77;;;9.50;99.90;;;;;;5045536;28;20489;-45
2024/03/07 09:35:48;;;;;;;4.50;3.83;;;9.50;99.90;;;;;;5054097;28;20669;-45
2024/03/07 09:38:16;;;;;;;6.07;4.60;;;9.40;99.90;;;;;;5052981;28;20447;-46
2024/03/07 09:40:44;;;;;;;5.40;4.30;;;9.50;99.90;;;;;;5054819;28;20445;-50
2024/03/07 09:43:14;;;;;;;4.77;3.93;;;9.50;99.90;;;;;;5070842;28;20428;-46
2024/03/07 09:45:42;;;;;;;7.50;5.80;;;9.40;99.90;;;;;;5056477;28;20949;-47
2024/03/07 09:48:17;;;;;;;5.50;4.03;;;9.50;99.90;;;;;;5054327;28;20432;-46
2024/03/07 09:50:50;;;;;;;5.70;5.07;;;9.50;99.90;;;;;;5054001;28;20445;-45
2024/03/07 09:53:21;;;;;;;7.17;5.07;;;9.50;99.90;;;;;;5064416;28;20480;-46
2024/03/07 09:55:49;;;;;;;6.27;4.70;;;9.50;99.90;;;;;;5056083;28;20465;-45
2024/03/07 09:58:22;;;;;;;5.60;4.60;;;9.50;99.90;;;;;;5052632;28;20509;-46
2024/03/07 10:00:51;;;;;;;5.30;4.67;;;9.50;99.90;;;;;;5062837;28;20430;-46
2024/03/07 10:03:27;;;;;;;5.23;4.70;;;9.50;99.90;;;;;;5067589;28;20447;-46
2024/03/07 10:05:56;;;;;;;6.40;4.70;;;9.50;99.90;;;;;;5054874;28;20463;-47
2024/03/07 10:08:28;;;;;;;5.87;4.90;;;9.50;99.90;;;;;;5059054;28;20500;-46
2024/03/07 10:10:57;;;;;;;5.87;4.47;;;9.50;99.90;;;;;;5059565;28;20916;-50
2024/03/07 10:13:26;;;;;;;5.90;4.90;;;9.50;99.90;;;;;;5060425;28;20470;-46
2024/03/07 10:15:59;;;;;;;7.27;5.83;;;9.50;99.90;;;;;;5067974;28;20454;-45
2024/03/07 10:18:29;;;;;;;6.70;5.07;;;9.40;99.90;;;;;;5065003;28;20427;-46
2024/03/07 10:20:58;;;;;;;5.90;5.30;;;9.40;99.90;;;;;;5070943;28;20430;-44
2024/03/07 10:23:27;;;;;;;6.03;4.93;;;9.40;99.90;;;;;;5071017;28;20444;-46
2024/03/07 10:25:55;;;;;;;9.03;4.67;;;9.40;99.90;;;;;;5070712;28;20450;-46
2024/03/07 10:28:24;;;;;;;5.60;4.67;;;9.40;99.90;;;;;;5063678;28;20446;-50
2024/03/07 10:30:56;;;;;;;5.03;4.50;;;9.40;99.90;;;;;;5062721;28;20442;-45
2024/03/07 10:33:32;;;;;;;7.40;5.07;;;9.40;99.90;;;;;;5068213;28;20455;-46
2024/03/07 10:36:01;;;;;;;6.17;4.50;;;9.40;99.90;;;;;;5053333;28;20975;-47
2024/03/07 10:38:31;;;;;;;7.70;5.40;;;9.50;99.90;;;;;;5060032;28;20837;-47
2024/03/07 10:41:00;;;;;;;6.60;5.20;;;9.40;99.90;;;;;;5060439;28;20438;-46
2024/03/07 10:43:32;;;;;;;6.10;5.10;;;9.40;99.90;;;;;;5053330;28;21827;-46
2024/03/07 10:46:06;;;;;;;7.93;5.83;;;9.40;99.90;;;;;;5054603;28;20458;-46
2024/03/07 10:48:40;;;;;;;10.20;7.93;;;9.40;99.90;;;;;;5053356;28;20435;-46
2024/03/07 10:51:20;;;;;;;7.10;5.33;;;9.40;99.90;;;;;;5066841;28;20417;-48
2024/03/07 10:53:58;;;;;;;7.20;4.57;;;9.50;99.90;;;;;;5068292;28;20523;-45
2024/03/07 10:56:42;;;;;;;7.80;4.93;;;9.40;99.90;;;;;;5050419;28;20517;-45
2024/03/07 10:59:17;;;;;;;6.60;4.80;;;9.40;99.90;;;;;;5062145;28;20492;-46
2024/03/07 11:01:50;;;;;;;7.47;5.70;;;9.40;99.90;;;;;;5061098;28;20426;-50
2024/03/07 11:04:27;;;;;;;7.30;4.90;;;9.40;99.90;;;;;;5067756;28;20438;-45
2024/03/07 11:06:58;;;;;;;6.63;5.30;;;9.40;99.90;;;;;;5066323;28;20454;-46
2024/03/07 11:09:32;;;;;;;6.33;5.70;;;9.40;99.90;;;;;;5065127;28;20420;-45
2024/03/07 11:12:03;;;;;;;7.03;5.33;;;9.40;99.90;;;;;;5069028;28;20495;-46
2024/03/07 11:14:32;;;;;;;5.90;5.30;;;9.40;99.90;;;;;;5060367;28;20478;-46
2024/03/07 11:17:03;;;;;;;8.40;6.17;;;9.40;99.90;;;;;;5069204;28;20438;-45
2024/03/07 11:19:36;;;;;;;6.97;5.47;;;9.40;99.90;;;;;;5067268;28;20458;-48
2024/03/07 11:22:15;;;;;;;8.37;5.97;;;9.40;99.90;;;;;;5070004;28;20446;-45
2024/03/07 11:24:45;;;;;;;7.43;5.43;;;9.50;99.90;;;;;;5069709;28;20450;-45
2024/03/07 11:27:13;;;;;;;8.77;6.43;;;9.50;99.90;;;;;;5069998;28;20423;-45
2024/03/07 11:29:52;;;;;;;7.83;6.97;;;9.50;99.90;;;;;;5055300;28;20505;-48
2024/03/07 11:32:22;;;;;;;7.20;5.63;;;9.50;99.90;;;;;;5045206;28;20936;-47
2024/03/07 11:34:57;;;;;;;9.63;7.40;;;9.50;99.90;;;;;;5059640;28;20482;-48
2024/03/07 11:37:43;;;;;;;9.70;6.07;;;9.50;99.90;;;;;;5065214;28;20442;-45
2024/03/07 11:40:18;;;;;;;8.67;6.00;;;9.50;99.90;;;;;;5067370;28;20808;-45
2024/03/07 11:42:48;;;;;;;6.60;5.20;;;9.50;99.90;;;;;;5061831;28;20537;-51
2024/03/07 11:45:24;;;;;;;7.47;6.27;;;9.50;99.90;;;;;;5066731;28;20535;-45
2024/03/07 11:47:59;;;;;;;8.90;7.00;;;9.50;99.90;;;;;;5063755;28;20479;-46
2024/03/07 11:50:34;;;;;;;9.10;7.07;;;9.50;99.90;;;;;;5066010;28;20429;-48
2024/03/07 11:53:05;;;;;;;10.40;7.43;;;9.50;99.90;;;;;;5069276;28;20452;-45
2024/03/07 11:55:44;;;;;;;10.33;7.37;;;9.50;99.90;;;;;;5065902;28;20995;-47
2024/03/07 11:58:13;;;;;;;10.20;6.70;;;9.50;99.90;;;;;;5054385;28;20449;-46
2024/03/07 12:00:44;;;;;;;8.97;6.90;;;9.50;99.90;;;;;;5070163;28;20795;-44
2024/03/07 12:03:16;;;;;;;10.10;6.80;;;9.50;99.90;;;;;;5061555;28;20438;-45
2024/03/07 12:05:48;;;;;;;9.40;7.47;;;9.50;99.90;;;;;;5058566;28;20466;-48
2024/03/07 12:08:16;;;;;;;7.90;5.93;;;9.50;99.90;;;;;;5065087;28;20961;-45
2024/03/07 12:10:46;;;;;;;11.43;9.27;;;9.50;99.90;;;;;;5069533;28;20422;-46
2024/03/07 12:13:19;;;;;;;7.90;7.10;;;9.50;99.90;;;;;;5064653;28;20445;-47
2024/03/07 12:15:48;;;;;;;9.00;7.40;;;9.50;99.90;;;;;;5069181;28;20808;-45
2024/03/07 12:18:17;;;;;;;9.47;7.50;;;9.50;99.90;;;;;;5062818;28;20435;-46
2024/03/07 12:20:51;;;;;;;8.67;7.33;;;9.50;99.90;;;;;;5060331;28;20636;-45
2024/03/07 12:23:25;;;;;;;9.07;7.80;;;9.50;99.90;;;;;;5060681;28;20455;-46
2024/03/07 12:26:02;;;;;;;8.57;7.67;;;9.50;99.90;;;;;;5065517;28;20481;-46
2024/03/07 12:28:33;;;;;;;8.47;6.70;;;9.50;99.90;;;;;;5065781;28;20438;-47
2024/03/07 12:31:03;;;;;;;6.97;6.07;;;9.50;99.90;;;;;;5064067;28;20457;-48
2024/03/07 12:33:38;;;;;;;7.97;5.83;;;9.50;99.90;;;;;;5056005;28;20446;-47
2024/03/07 12:36:09;;;;;;;7.50;6.40;;;9.50;99.90;;;;;;5063354;28;20514;-47
2024/03/07 12:38:41;;;;;;;12.40;8.20;;;9.50;99.90;;;;;;5060987;28;20806;-45
2024/03/07 12:41:15;;;;;;;8.30;6.47;;;9.50;99.90;;;;;;5067880;28;20807;-44
2024/03/07 12:43:46;;;;;;;9.63;6.57;;;9.50;99.90;;;;;;5060934;28;20522;-44
2024/03/07 12:46:17;;;;;;;9.47;7.80;;;9.40;99.90;;;;;;5068969;28;20496;-44
2024/03/07 12:48:46;;;;;;;10.03;7.00;;;9.50;99.90;;;;;;5066262;28;20446;-44
2024/03/07 12:51:19;;;;;;;9.50;7.20;;;9.50;99.90;;;;;;5070999;28;20453;-43
2024/03/07 12:53:52;;;;;;;8.97;6.70;;;9.50;99.90;;;;;;5069328;28;20542;-44
2024/03/07 12:56:24;;;;;;;9.63;8.20;;;9.50;99.90;;;;;;5070840;28;20458;-44
2024/03/07 12:58:59;;;;;;;8.50;6.60;;;9.50;99.90;;;;;;5072382;28;20492;-44
2024/03/07 13:01:27;;;;;;;8.23;6.80;;;9.50;99.90;;;;;;5073051;28;20453;-44
2024/03/07 13:03:56;;;;;;;11.53;7.60;;;9.50;99.90;;;;;;5069258;28;20433;-46
2024/03/07 13:06:29;;;;;;;8.87;6.97;;;9.50;99.90;;;;;;5072816;28;20456;-45
2024/03/07 13:08:58;;;;;;;9.13;7.07;;;9.50;99.90;;;;;;5071833;28;20459;-45
2024/03/07 13:11:29;;;;;;;8.80;7.60;;;9.50;99.90;;;;;;5072649;28;20930;-45